Time;durP1;ratioP1;P1;durP2;ratioP2;P2;SDS_P1;SDS_P2;PMS_P1;PMS_P2;Temp;Humidity;BMP_temperature;BMP_pressure;BME280_temperature;BME280_humidity;BME280_pressure;Samples;Min_cycle;Max_cycle;Signal;HPM_P1;HPM_P2
2021/05/03 00:01:53;;;;;;;4.13;2.20;;;;;;;6.18;67.56;101628.31;6141977;28;20518;-52
2021/05/03 00:05:22;;;;;;;5.97;2.33;;;;;;;6.79;65.56;101620.09;6144985;28;20235;-55
2021/05/03 00:08:44;;;;;;;2.87;1.93;;;;;;;6.55;66.17;101617.88;6142293;28;20227;-53
2021/05/03 00:12:05;;;;;;;5.47;2.50;;;;;;;6.82;65.51;101613.22;6144929;28;20239;-52
2021/05/03 00:15:25;;;;;;;4.33;1.77;;;;;;;6.65;65.91;101619.78;6144456;28;20220;-50
2021/05/03 00:18:46;;;;;;;5.27;2.23;;;;;;;6.82;65.42;101621.00;6145190;28;20246;-53
2021/05/03 00:22:06;;;;;;;4.60;2.57;;;;;;;6.74;65.34;101617.38;6140181;28;20687;-52
2021/05/03 00:25:27;;;;;;;1.90;1.70;;;;;;;6.62;65.66;101612.84;6143097;28;20262;-53
2021/05/03 00:28:48;;;;;;;4.33;2.50;;;;;;;5.96;67.92;101626.97;6144776;28;20321;-54
2021/05/03 00:32:08;;;;;;;4.57;2.33;;;;;;;6.16;67.40;101614.47;6142370;28;22094;-52
2021/05/03 00:35:29;;;;;;;2.50;1.93;;;;;;;6.15;67.84;101629.97;6146222;28;20235;-55
2021/05/03 00:38:49;;;;;;;5.30;2.63;;;;;;;5.94;68.93;101644.13;6141974;28;20236;-54
2021/05/03 00:42:11;;;;;;;2.87;2.57;;;;;;;5.76;69.33;101633.34;6143980;28;20593;-56
2021/05/03 00:45:31;;;;;;;4.73;2.87;;;;;;;5.74;69.20;101635.91;6146049;28;20235;-54
2021/05/03 00:48:52;;;;;;;3.57;2.73;;;;;;;6.28;67.46;101624.19;6145556;28;20235;-54
2021/05/03 00:52:13;;;;;;;4.53;3.00;;;;;;;6.41;66.85;101623.63;6143184;28;20608;-52
2021/05/03 00:55:33;;;;;;;6.27;3.23;;;;;;;6.28;67.29;101626.78;6143961;28;20235;-53
2021/05/03 00:58:55;;;;;;;5.80;2.77;;;;;;;5.75;68.82;101619.53;6144268;28;20481;-49
2021/05/03 01:02:16;;;;;;;7.90;4.20;;;;;;;6.50;66.96;101623.81;6141324;28;20521;-53
2021/05/03 01:05:36;;;;;;;3.63;2.50;;;;;;;6.33;66.96;101619.16;6144942;28;20227;-56
2021/05/03 01:08:57;;;;;;;3.57;2.60;;;;;;;6.38;66.58;101623.59;6143776;28;20235;-53
2021/05/03 01:12:17;;;;;;;2.63;2.40;;;;;;;6.34;67.04;101620.88;6141579;28;20227;-56
2021/05/03 01:15:39;;;;;;;4.93;2.47;;;;;;;6.31;67.38;101627.72;6138750;28;20235;-54
2021/05/03 01:19:00;;;;;;;3.73;3.03;;;;;;;5.79;69.78;101628.25;6142474;28;20235;-55
2021/05/03 01:22:21;;;;;;;5.13;3.33;;;;;;;6.19;68.12;101631.78;6140365;28;20243;-53
2021/05/03 01:25:42;;;;;;;6.47;3.67;;;;;;;6.15;68.42;101627.38;6139137;28;20231;-53
2021/05/03 01:29:04;;;;;;;5.23;3.67;;;;;;;5.95;69.25;101635.53;6144067;28;20515;-54
2021/05/03 01:32:25;;;;;;;3.33;2.87;;;;;;;5.63;70.52;101637.34;6141303;28;20219;-54
2021/05/03 01:35:47;;;;;;;7.40;4.23;;;;;;;5.65;70.20;101633.97;6142833;28;20319;-53
2021/05/03 01:39:10;;;;;;;4.27;3.37;;;;;;;5.48;70.86;101643.88;6140243;28;20235;-49
2021/05/03 01:42:30;;;;;;;7.23;4.63;;;;;;;5.36;70.86;101638.41;6137852;28;20231;-54
2021/05/03 01:45:53;;;;;;;4.70;3.40;;;;;;;5.45;70.94;101630.03;6142333;28;20235;-51
2021/05/03 01:49:13;;;;;;;4.67;3.50;;;;;;;5.66;69.69;101633.13;6143485;28;20227;-52
2021/05/03 01:52:35;;;;;;;3.40;3.10;;;;;;;5.81;68.85;101645.53;6135459;28;20261;-54
2021/05/03 01:55:58;;;;;;;3.93;3.43;;;;;;;5.77;68.97;101650.59;6139753;28;20235;-53
2021/05/03 01:59:18;;;;;;;4.23;3.10;;;;;;;5.98;67.97;101653.72;6143759;28;20227;-53
2021/05/03 02:02:39;;;;;;;6.80;3.00;;;;;;;5.97;68.20;101641.66;6139686;28;20246;-52
2021/05/03 02:06:00;;;;;;;2.50;2.30;;;;;;;5.89;68.54;101648.31;6129795;28;20235;-52
2021/05/03 02:09:23;;;;;;;3.57;2.97;;;;;;;5.92;68.66;101643.22;6141368;28;20239;-54
2021/05/03 02:12:45;;;;;;;2.73;2.53;;;;;;;6.00;67.58;101654.63;6139207;28;20602;-52
2021/05/03 02:16:06;;;;;;;3.33;2.80;;;;;;;5.94;68.38;101656.19;6140683;28;20231;-50
2021/05/03 02:19:27;;;;;;;4.20;3.20;;;;;;;5.70;69.31;101657.34;6144042;28;20620;-50
2021/05/03 02:22:47;;;;;;;3.47;2.77;;;;;;;5.29;70.43;101660.63;6138540;28;20242;-51
2021/05/03 02:26:07;;;;;;;4.33;2.73;;;;;;;5.68;69.14;101659.88;6119078;28;20243;-54
2021/05/03 02:29:29;;;;;;;2.93;2.63;;;;;;;5.80;69.01;101663.63;6145528;28;20450;-50
2021/05/03 02:32:49;;;;;;;3.67;3.33;;;;;;;5.62;69.69;101658.84;6135078;28;20621;-53
2021/05/03 02:36:10;;;;;;;4.37;2.87;;;;;;;5.73;69.49;101668.63;6140181;28;20334;-53
2021/05/03 02:39:30;;;;;;;4.80;2.70;;;;;;;5.71;69.49;101666.84;6142442;28;20661;-51
2021/05/03 02:42:53;;;;;;;3.80;2.73;;;;;;;5.57;70.23;101666.50;6139005;28;20317;-55
2021/05/03 02:46:14;;;;;;;4.33;2.50;;;;;;;5.90;68.99;101663.84;6142119;28;20247;-52
2021/05/03 02:49:34;;;;;;;2.90;2.70;;;;;;;5.60;69.90;101663.09;6134763;28;20232;-49
2021/05/03 02:52:55;;;;;;;3.17;2.87;;;;;;;5.76;69.24;101661.75;6138448;28;20235;-55
2021/05/03 02:56:16;;;;;;;5.07;2.67;;;;;;;5.87;68.70;101657.72;6143472;28;20223;-53
2021/05/03 02:59:36;;;;;;;2.53;2.33;;;;;;;5.48;69.85;101661.09;6140622;28;20330;-50
2021/05/03 03:02:58;;;;;;;4.43;2.53;;;;;;;5.60;69.78;101651.06;6137268;28;20247;-54
2021/05/03 03:06:19;;;;;;;4.80;2.50;;;;;;;5.48;70.01;101664.53;6140974;28;20231;-54
2021/05/03 03:09:39;;;;;;;2.77;2.47;;;;;;;5.60;69.73;101651.06;6139665;28;20235;-55
2021/05/03 03:13:03;;;;;;;3.57;2.83;;;;;;;5.59;70.05;101651.91;6141652;28;20235;-51
2021/05/03 03:16:26;;;;;;;5.40;3.17;;;;;;;5.45;71.02;101658.44;6138369;28;20302;-51
2021/05/03 03:19:47;;;;;;;3.77;3.40;;;;;;;5.92;70.09;101663.91;6118942;28;20235;-52
2021/05/03 03:23:08;;;;;;;3.60;3.20;;;;;;;5.69;70.75;101671.97;6135392;28;20255;-53
2021/05/03 03:26:28;;;;;;;3.77;3.47;;;;;;;5.23;71.99;101665.63;6127550;28;20223;-55
2021/05/03 03:29:48;;;;;;;4.20;3.83;;;;;;;5.35;72.00;101674.53;6127969;28;20227;-56
2021/05/03 03:33:09;;;;;;;6.03;3.83;;;;;;;5.26;72.00;101675.19;6136811;28;20243;-54
2021/05/03 03:36:30;;;;;;;4.37;3.93;;;;;;;5.32;71.57;101678.78;6140444;28;20235;-52
2021/05/03 03:39:50;;;;;;;5.53;3.97;;;;;;;4.88;72.97;101688.75;6140949;28;20235;-52
2021/05/03 03:43:11;;;;;;;3.93;3.63;;;;;;;4.90;72.70;101675.91;6136324;28;20491;-52
2021/05/03 03:46:31;;;;;;;4.23;3.83;;;;;;;4.79;73.26;101678.22;6132844;28;20370;-55
2021/05/03 03:49:52;;;;;;;4.00;3.70;;;;;;;4.89;72.81;101681.91;6132917;28;20235;-50
2021/05/03 03:53:14;;;;;;;6.73;3.63;;;;;;;4.85;72.28;101683.53;6135742;28;20329;-55
2021/05/03 03:56:34;;;;;;;3.90;3.60;;;;;;;5.23;71.07;101683.69;6142374;28;20232;-50
2021/05/03 03:59:57;;;;;;;3.67;2.40;;;;;;;5.19;71.18;101683.59;6118664;28;20538;-56
2021/05/03 04:03:20;;;;;;;5.30;3.30;;;;;;;5.30;70.78;101672.69;6136590;28;20235;-55
2021/05/03 04:06:47;;;;;;;3.43;3.07;;;;;;;5.25;71.55;101684.63;6133478;28;20238;-53
2021/05/03 04:10:20;;;;;;;3.37;3.13;;;;;;;5.05;72.46;101680.63;6139710;28;20484;-49
2021/05/03 04:21:10;;;;;;;4.80;3.47;;;;;;;4.93;72.87;101682.03;6130531;28;20247;-52
2021/05/03 04:24:40;;;;;;;4.80;4.23;;;;;;;4.93;72.77;101692.38;6141592;28;20231;-53
2021/05/03 04:28:01;;;;;;;4.20;3.70;;;;;;;4.99;72.42;101690.78;6138768;28;22241;-53
2021/05/03 04:31:23;;;;;;;4.17;3.20;;;;;;;5.00;73.23;101692.53;6142218;28;20250;-55
2021/05/03 04:34:44;;;;;;;3.93;3.63;;;;;;;5.51;70.21;101692.19;6143775;28;20243;-54
2021/05/03 04:38:05;;;;;;;6.10;3.57;;;;;;;5.90;68.77;101699.19;6143217;28;22104;-53
2021/05/03 04:41:25;;;;;;;4.13;3.73;;;;;;;5.76;69.33;101700.53;6129300;28;20236;-54
2021/05/03 04:44:46;;;;;;;4.60;4.07;;;;;;;5.47;71.20;101703.28;6141120;28;20231;-51
2021/05/03 04:48:07;;;;;;;3.53;3.23;;;;;;;5.62;71.04;101706.25;6140273;28;20333;-50
2021/05/03 04:51:27;;;;;;;5.83;3.97;;;;;;;6.17;69.70;101706.75;6140411;28;20236;-53
2021/05/03 04:54:48;;;;;;;3.90;3.60;;;;;;;6.09;70.28;101708.28;6129118;28;20341;-52
2021/05/03 04:58:08;;;;;;;5.77;4.23;;;;;;;6.16;70.42;101707.56;6141725;28;20227;-50
2021/05/03 05:01:29;;;;;;;5.67;4.23;;;;;;;6.28;69.45;101704.41;6139319;28;20231;-50
2021/05/03 05:04:50;;;;;;;4.33;3.47;;;;;;;6.41;68.58;101711.59;6138627;28;20555;-53
2021/05/03 05:08:10;;;;;;;3.80;3.33;;;;;;;6.55;67.29;101713.63;6142080;28;20240;-50
2021/05/03 05:11:31;;;;;;;5.07;3.70;;;;;;;5.88;69.42;101712.06;6139019;28;20227;-54
2021/05/03 05:14:52;;;;;;;4.57;3.60;;;;;;;5.71;70.08;101709.06;6142098;28;20227;-52
2021/05/03 05:18:13;;;;;;;6.17;3.70;;;;;;;5.78;70.02;101720.44;6143318;28;20799;-55
2021/05/03 05:21:35;;;;;;;8.40;4.47;;;;;;;5.60;71.07;101738.03;6137276;28;20235;-53
2021/05/03 05:24:55;;;;;;;4.33;3.93;;;;;;;5.66;70.53;101721.00;6141645;28;20596;-55
2021/05/03 05:28:16;;;;;;;5.07;4.13;;;;;;;5.84;69.86;101724.88;6144213;28;20250;-57
2021/05/03 05:31:36;;;;;;;5.23;3.70;;;;;;;5.94;69.40;101728.56;6142923;28;22021;-54
2021/05/03 05:34:58;;;;;;;4.47;4.07;;;;;;;5.99;69.02;101727.00;6145542;28;20632;-53
2021/05/03 05:38:18;;;;;;;4.73;4.10;;;;;;;5.98;68.44;101725.25;6141468;28;20227;-52
2021/05/03 05:41:39;;;;;;;6.67;3.90;;;;;;;6.17;67.68;101729.16;6143412;28;20623;-51
2021/05/03 05:45:00;;;;;;;3.80;3.00;;;;;;;6.29;67.14;101730.31;6140460;28;20239;-54
2021/05/03 05:48:20;;;;;;;5.20;4.47;;;;;;;5.87;68.07;101728.44;6133752;28;20342;-56
2021/05/03 05:51:42;;;;;;;4.00;3.63;;;;;;;6.50;67.59;101732.50;6135718;28;20230;-52
2021/05/03 05:55:04;;;;;;;3.77;3.20;;;;;;;6.56;67.31;101736.94;6140922;28;20239;-52
2021/05/03 05:58:24;;;;;;;4.77;4.03;;;;;;;6.37;68.27;101746.00;6150030;28;20235;-56
2021/05/03 06:01:45;;;;;;;3.93;2.87;;;;;;;6.39;68.40;101749.50;6139655;28;20267;-53
2021/05/03 06:05:07;;;;;;;3.00;2.80;;;;;;;6.07;69.11;101753.94;6139880;28;20243;-57
2021/05/03 06:08:28;;;;;;;4.80;3.70;;;;;;;6.08;68.74;101748.78;6144694;28;20927;-53
2021/05/03 06:11:49;;;;;;;3.80;3.50;;;;;;;5.86;68.74;101742.19;6141413;28;20231;-53
2021/05/03 06:15:09;;;;;;;3.87;3.50;;;;;;;6.38;67.17;101742.59;6143957;28;20235;-53
2021/05/03 06:18:30;;;;;;;5.87;4.27;;;;;;;6.72;66.85;101743.34;6138400;28;20629;-51
2021/05/03 06:21:50;;;;;;;6.27;3.90;;;;;;;6.36;67.68;101749.44;6140241;28;20227;-49
2021/05/03 06:25:12;;;;;;;5.13;4.70;;;;;;;6.63;66.89;101743.13;6143173;28;20239;-51
2021/05/03 06:28:32;;;;;;;4.47;3.77;;;;;;;6.64;66.95;101737.13;6123856;28;20264;-49
2021/05/03 06:31:54;;;;;;;5.73;3.50;;;;;;;6.92;66.42;101740.28;6144172;28;20230;-51
2021/05/03 06:35:14;;;;;;;3.40;3.10;;;;;;;7.14;64.58;101742.47;6137654;28;20951;-54
2021/05/03 06:38:34;;;;;;;5.97;3.20;;;;;;;7.63;62.95;101748.56;6143398;28;20235;-51
2021/05/03 06:41:56;;;;;;;3.83;3.47;;;;;;;7.13;64.51;101738.13;6133394;28;20333;-53
2021/05/03 06:45:18;;;;;;;5.70;4.47;;;;;;;7.39;63.83;101743.84;6134292;28;20231;-54
2021/05/03 06:48:38;;;;;;;3.60;3.30;;;;;;;7.35;63.73;101751.50;6139741;28;20692;-55
2021/05/03 06:51:59;;;;;;;5.77;4.20;;;;;;;6.97;65.33;101730.91;6143935;28;21047;-54
2021/05/03 06:55:19;;;;;;;3.57;3.27;;;;;;;7.62;63.30;101733.88;6141834;28;20262;-54
2021/05/03 06:58:41;;;;;;;5.90;4.30;;;;;;;7.36;63.90;101740.31;6141408;28;20246;-51
2021/05/03 07:02:01;;;;;;;3.47;3.07;;;;;;;7.99;61.95;101736.25;6141851;28;20515;-52
2021/05/03 07:05:22;;;;;;;3.77;3.47;;;;;;;7.92;61.55;101731.78;6133873;28;20223;-52
2021/05/03 07:08:43;;;;;;;3.40;3.10;;;;;;;8.30;60.33;101735.00;6143196;28;20313;-52
2021/05/03 07:12:08;;;;;;;4.63;3.23;;;;;;;8.35;59.62;101720.34;6142333;28;20833;-54
2021/05/03 07:15:29;;;;;;;3.47;2.93;;;;;;;8.73;58.27;101733.03;6129013;28;20472;-53
2021/05/03 07:18:49;;;;;;;2.00;1.90;;;;;;;8.34;59.27;101743.69;6138822;28;20239;-55
2021/05/03 07:22:11;;;;;;;2.87;2.30;;;;;;;7.87;59.86;101736.88;6140955;28;20235;-56
2021/05/03 07:25:32;;;;;;;6.00;2.47;;;;;;;8.33;58.51;101740.22;6141513;28;20325;-53
2021/05/03 07:28:52;;;;;;;2.60;2.17;;;;;;;8.57;57.28;101721.56;6140570;28;20613;-55
2021/05/03 07:32:14;;;;;;;2.47;2.27;;;;;;;8.43;57.82;101736.94;6137884;28;20616;-51
2021/05/03 07:35:34;;;;;;;4.97;2.53;;;;;;;8.56;56.93;101737.97;6138710;28;20397;-53
2021/05/03 07:38:55;;;;;;;1.90;1.80;;;;;;;9.05;55.80;101728.25;6141106;28;20231;-51
2021/05/03 07:42:15;;;;;;;3.67;1.77;;;;;;;8.75;54.85;101731.31;6141788;28;20246;-54
2021/05/03 07:45:36;;;;;;;3.13;1.87;;;;;;;9.14;53.43;101730.06;6140844;28;20235;-54
2021/05/03 07:48:58;;;;;;;2.40;2.10;;;;;;;9.00;55.06;101729.03;6141365;28;20325;-54
2021/05/03 07:52:19;;;;;;;4.97;3.07;;;;;;;9.76;53.69;101720.28;6146959;28;20223;-51
2021/05/03 07:55:39;;;;;;;3.53;2.30;;;;;;;9.75;53.20;101714.22;6146013;28;20239;-55
2021/05/03 07:59:00;;;;;;;4.33;2.40;;;;;;;9.40;53.71;101739.84;6137480;28;20223;-52
2021/05/03 08:02:21;;;;;;;2.53;1.70;;;;;;;8.92;54.59;101723.75;6141029;28;20555;-50
2021/05/03 08:05:42;;;;;;;4.27;1.90;;;;;;;9.57;53.00;101733.09;6145147;28;20243;-55
2021/05/03 08:09:05;;;;;;;2.90;1.97;;;;;;;9.72;53.12;101726.31;6145452;28;20239;-55
2021/05/03 08:12:27;;;;;;;2.90;2.00;;;;;;;9.29;54.37;101733.69;6129454;28;20231;-56
2021/05/03 08:15:49;;;;;;;2.33;2.13;;;;;;;8.67;54.91;101728.63;6155760;28;20255;-52
2021/05/03 08:19:12;;;;;;;3.30;2.60;;;;;;;9.54;53.69;101721.78;6144616;28;20242;-53
2021/05/03 08:22:33;;;;;;;3.83;3.10;;;;;;;10.24;52.50;101718.91;6135945;28;20227;-56
2021/05/03 08:25:55;;;;;;;3.23;2.93;;;;;;;9.41;53.60;101728.63;6149239;28;20243;-52
2021/05/03 08:29:16;;;;;;;2.53;2.20;;;;;;;9.33;53.91;101731.13;6137954;28;20235;-56
2021/05/03 08:32:36;;;;;;;3.80;2.10;;;;;;;9.27;53.95;101731.94;6142856;28;20262;-51
2021/05/03 08:35:57;;;;;;;3.83;2.40;;;;;;;10.04;51.75;101734.38;6139141;28;20326;-54
2021/05/03 08:39:18;;;;;;;3.43;2.30;;;;;;;9.23;53.39;101734.50;6140100;28;20231;-51
2021/05/03 08:42:40;;;;;;;3.30;2.10;;;;;;;8.84;54.76;101720.16;6146355;28;20247;-55
2021/05/03 08:46:00;;;;;;;3.67;2.40;;;;;;;9.94;52.52;101720.41;6135324;28;20235;-53
2021/05/03 08:49:24;;;;;;;2.50;2.30;;;;;;;10.62;51.03;101731.31;6143071;28;20247;-55
2021/05/03 08:52:46;;;;;;;4.43;2.60;;;;;;;10.49;51.16;101724.28;6142595;28;20231;-54
2021/05/03 08:56:08;;;;;;;2.03;1.87;;;;;;;10.19;51.30;101734.50;6145277;28;20577;-53
2021/05/03 08:59:28;;;;;;;2.50;2.30;;;;;;;9.20;55.35;101729.25;6131988;28;20230;-51
2021/05/03 09:02:49;;;;;;;4.13;2.47;;;;;;;9.29;55.06;101724.16;6138080;28;20239;-53
2021/05/03 09:06:10;;;;;;;3.37;3.07;;;;;;;9.16;56.34;101727.47;6143615;28;20243;-53
2021/05/03 09:09:32;;;;;;;4.40;2.73;;;;;;;8.82;56.75;101740.94;6137008;28;20231;-53
2021/05/03 09:12:53;;;;;;;5.50;3.23;;;;;;;9.16;56.54;101728.34;6140028;28;20232;-56
2021/05/03 09:16:18;;;;;;;4.00;2.87;;;;;;;8.93;56.77;101729.81;6140703;28;20235;-52
2021/05/03 09:19:38;;;;;;;3.83;2.80;;;;;;;8.35;58.13;101742.84;6141595;28;20243;-53
2021/05/03 09:23:03;;;;;;;3.30;3.10;;;;;;;8.03;59.71;101733.69;6144926;28;20286;-54
2021/05/03 09:26:36;;;;;;;5.40;4.40;;;;;;;9.00;57.12;101719.50;6143984;28;20234;-50
2021/05/03 09:29:58;;;;;;;6.90;4.93;;;;;;;8.86;57.52;101734.94;6139370;28;20531;-52
2021/05/03 09:33:21;;;;;;;3.53;3.23;;;;;;;8.14;59.85;101736.44;6141253;28;20233;-53
2021/05/03 09:36:42;;;;;;;4.03;3.17;;;;;;;8.09;61.20;101735.53;6144516;28;20499;-51
2021/05/03 09:40:07;;;;;;;4.13;3.80;;;;;;;8.76;58.59;101726.97;6145464;28;20235;-53
2021/05/03 09:43:27;;;;;;;3.77;3.40;;;;;;;8.52;58.49;101718.03;6134172;28;20682;-55
2021/05/03 09:46:50;;;;;;;5.80;4.33;;;;;;;8.62;58.93;101732.00;6143503;28;20247;-56
2021/05/03 09:50:13;;;;;;;5.87;5.37;;;;;;;7.92;62.58;101735.25;6142063;28;20352;-53
2021/05/03 09:53:34;;;;;;;6.97;6.20;;;;;;;7.66;63.73;101738.28;6128928;28;20250;-51
2021/05/03 09:57:00;;;;;;;5.73;5.23;;;;;;;7.90;63.53;101734.34;6144954;28;20231;-58
2021/05/03 10:00:33;;;;;;;7.20;6.53;;;;;;;8.27;61.94;101728.00;6133640;28;20230;-59
2021/05/03 10:03:54;;;;;;;7.80;7.00;;;;;;;8.62;60.76;101725.06;6139279;28;20226;-53
2021/05/03 10:07:17;;;;;;;5.70;5.20;;;;;;;8.56;60.34;101725.00;6141946;28;20234;-52
2021/05/03 10:10:43;;;;;;;6.70;6.10;;;;;;;9.39;57.60;101719.94;6138726;28;20609;-53
2021/05/03 10:14:04;;;;;;;5.63;5.13;;;;;;;8.82;59.29;101714.06;6141336;28;20246;-54
2021/05/03 10:17:26;;;;;;;5.43;5.03;;;;;;;8.67;60.06;101706.97;6135396;28;20259;-56
2021/05/03 10:20:48;;;;;;;6.03;5.60;;;;;;;8.43;60.22;101718.78;6142982;28;20238;-54
2021/05/03 10:24:09;;;;;;;5.80;5.30;;;;;;;8.48;59.40;101713.66;6141296;28;20259;-56
2021/05/03 10:27:31;;;;;;;3.80;3.53;;;;;;;8.08;60.60;101713.91;6136593;28;20250;-56
2021/05/03 10:30:55;;;;;;;3.00;2.80;;;;;;;8.41;59.35;101702.31;6141885;28;20334;-53
2021/05/03 10:34:41;;;;;;;2.80;2.60;;;;;;;9.34;57.16;101706.00;6143288;28;20312;-55
2021/05/03 10:38:03;;;;;;;3.00;2.80;;;;;;;8.42;59.89;101706.63;6131460;28;20238;-56
2021/05/03 10:41:26;;;;;;;3.87;3.57;;;;;;;8.52;59.47;101704.19;6141968;28;20234;-52
2021/05/03 10:45:11;;;;;;;4.33;3.90;;;;;;;9.71;56.28;101683.81;6141146;28;20235;-53
2021/05/03 10:48:49;;;;;;;5.07;4.67;;;;;;;10.20;53.66;101681.59;6128695;28;20236;-56
2021/05/03 10:52:14;;;;;;;5.60;5.17;;;;;;;9.04;57.43;101697.03;6142174;28;20227;-56
2021/05/03 10:55:49;;;;;;;5.53;5.13;;;;;;;9.18;56.60;101677.25;6140016;28;20242;-53
2021/05/03 10:59:11;;;;;;;6.50;6.00;;;;;;;9.43;56.86;101680.09;6141504;28;20231;-55
2021/05/03 11:02:46;;;;;;;6.43;5.93;;;;;;;9.30;56.10;101699.03;6141617;28;20231;-56
2021/05/03 11:06:06;;;;;;;6.97;6.37;;;;;;;9.43;56.18;101680.09;6141227;28;20239;-52
2021/05/03 11:09:35;;;;;;;6.67;6.07;;;;;;;9.08;56.74;101678.03;6129802;28;20235;-52
2021/05/03 11:12:56;;;;;;;6.83;6.13;;;;;;;8.75;58.43;101663.78;6140188;28;20777;-53
2021/05/03 11:16:49;;;;;;;7.57;6.83;;;;;;;8.92;57.58;101664.00;6140850;28;20235;-56
2021/05/03 11:20:11;;;;;;;6.27;5.63;;;;;;;9.03;57.56;101658.91;6136846;28;20536;-56
2021/05/03 11:23:34;;;;;;;7.07;6.47;;;;;;;8.48;59.39;101657.38;6148066;28;20231;-55
2021/05/03 11:26:58;;;;;;;5.97;5.43;;;;;;;8.77;57.87;101662.09;6144924;28;20243;-55
2021/05/03 11:30:26;;;;;;;5.07;4.73;;;;;;;9.36;55.91;101667.91;6146058;28;20750;-53
2021/05/03 11:33:56;;;;;;;6.80;6.07;;;;;;;9.21;56.56;101661.72;6133562;28;20293;-54
2021/05/03 11:37:19;;;;;;;6.00;5.50;;;;;;;9.55;55.82;101664.59;6135964;28;20318;-51
2021/05/03 11:40:56;;;;;;;6.97;6.33;;;;;;;9.44;56.06;101667.13;6142024;28;20242;-55
2021/05/03 11:44:23;;;;;;;8.20;7.40;;;;;;;9.08;57.53;101665.03;6127554;28;20329;-51
2021/05/03 11:47:45;;;;;;;8.13;7.43;;;;;;;9.42;56.79;101667.94;6139047;28;20236;-57
2021/05/03 11:51:08;;;;;;;7.27;6.77;;;;;;;9.46;57.31;101670.63;6140473;28;20262;-55
2021/05/03 11:54:30;;;;;;;9.47;6.90;;;;;;;9.78;56.56;101662.19;6142997;28;20231;-53
2021/05/03 11:57:52;;;;;;;7.50;6.80;;;;;;;8.70;57.88;101669.78;6132432;28;20239;-55
2021/05/03 12:01:14;;;;;;;6.97;6.47;;;;;;;8.92;57.75;101670.91;6147260;28;20239;-54
2021/05/03 12:04:38;;;;;;;6.13;5.63;;;;;;;9.04;57.48;101668.44;6142613;28;20231;-53
2021/05/03 12:08:12;;;;;;;7.63;7.03;;;;;;;8.91;58.28;101659.63;6147402;28;20238;-53
2021/05/03 12:11:33;;;;;;;7.23;6.63;;;;;;;9.35;57.21;101666.16;6146219;28;20230;-54
2021/05/03 12:14:53;;;;;;;10.30;8.40;;;;;;;8.76;58.51;101662.94;6139353;28;20605;-51
2021/05/03 12:18:18;;;;;;;8.47;7.87;;;;;;;9.17;57.23;101661.63;6139510;28;20242;-53
2021/05/03 12:21:40;;;;;;;7.60;7.00;;;;;;;9.46;56.24;101660.22;6149508;28;20543;-53
2021/05/03 12:25:04;;;;;;;8.80;8.00;;;;;;;9.71;55.94;101643.94;6139586;28;20271;-56
2021/05/03 12:28:27;;;;;;;8.30;7.60;;;;;;;9.50;55.86;101657.63;6136708;28;20603;-54
2021/05/03 12:31:47;;;;;;;8.63;7.93;;;;;;;9.26;56.47;101654.81;6136714;28;20639;-53
2021/05/03 12:35:10;;;;;;;9.13;8.13;;;;;;;9.77;55.27;101649.16;6130250;28;20281;-54
2021/05/03 12:38:31;;;;;;;9.83;8.93;;;;;;;9.17;57.31;101644.34;6143681;28;20231;-51
2021/05/03 12:41:51;;;;;;;8.53;7.93;;;;;;;9.98;55.91;101638.06;6127397;28;20239;-53
2021/05/03 12:45:19;;;;;;;9.90;9.10;;;;;;;10.36;55.04;101625.28;6143974;28;20232;-54
2021/05/03 12:48:54;;;;;;;9.33;8.43;;;;;;;10.32;54.70;101627.88;6147659;28;20231;-54
2021/05/03 12:52:27;;;;;;;9.20;8.50;;;;;;;9.49;57.82;101622.97;6152587;28;20230;-54
2021/05/03 12:56:05;;;;;;;10.93;10.03;;;;;;;9.38;57.89;101620.28;6139232;28;20614;-54
2021/05/03 12:59:36;;;;;;;10.30;9.47;;;;;;;10.39;54.62;101617.50;6139893;28;20601;-55
2021/05/03 13:03:04;;;;;;;8.87;8.07;;;;;;;10.99;52.89;101598.56;6136305;28;20263;-56
2021/05/03 13:06:33;;;;;;;9.63;8.83;;;;;;;10.93;52.64;101603.75;6135202;28;20576;-57
2021/05/03 13:10:33;;;;;;;10.03;9.03;;;;;;;12.15;50.04;101599.38;6139703;28;20243;-56
2021/05/03 13:25:30;;;;;;;8.80;8.00;;;;;;;11.87;50.60;101575.94;6140790;28;20569;-55
2021/05/03 13:29:06;;;;;;;7.83;7.10;;;;;;;13.84;45.59;101577.38;6143115;28;20239;-55
2021/05/03 13:32:30;;;;;;;9.37;8.67;;;;;;;13.53;44.82;101571.56;6146983;28;20867;-51
2021/05/03 13:35:50;;;;;;;10.73;9.83;;;;;;;12.08;49.03;101575.06;6143712;28;20243;-51
2021/05/03 13:39:12;;;;;;;9.70;8.83;;;;;;;13.96;44.95;101565.91;6140936;28;20636;-53
2021/05/03 13:42:33;;;;;;;11.63;10.63;;;;;;;12.04;48.39;101567.22;6142772;28;20239;-53
2021/05/03 13:45:54;;;;;;;9.80;9.00;;;;;;;11.86;50.04;101548.09;6137476;28;20239;-51
2021/05/03 13:49:15;;;;;;;10.50;9.60;;;;;;;13.18;47.16;101551.75;6140901;28;20262;-53
2021/05/03 13:52:35;;;;;;;11.33;10.43;;;;;;;12.66;47.44;101555.63;6137227;28;20574;-54
2021/05/03 13:55:57;;;;;;;12.50;11.43;;;;;;;12.10;49.40;101548.94;6143124;28;20479;-55
2021/05/03 13:59:17;;;;;;;12.63;11.07;;;;;;;12.44;49.10;101551.41;6142214;28;20500;-53
2021/05/03 14:02:39;;;;;;;14.57;13.23;;;;;;;11.03;53.53;101556.00;6139081;28;20242;-56
2021/05/03 14:05:59;;;;;;;13.80;12.50;;;;;;;11.52;51.12;101549.94;6142344;28;20235;-53
2021/05/03 14:09:20;;;;;;;15.63;14.33;;;;;;;12.64;50.91;101541.72;6138638;28;20785;-57
2021/05/03 14:12:40;;;;;;;14.47;13.17;;;;;;;12.54;48.83;101540.00;6133301;28;20521;-54
2021/05/03 14:16:02;;;;;;;17.53;15.73;;;;;;;11.56;51.20;101536.88;6140766;28;20311;-57
2021/05/03 14:19:29;;;;;;;14.67;13.27;;;;;;;11.97;50.83;101532.44;6143205;28;20242;-51
2021/05/03 14:22:50;;;;;;;13.77;12.47;;;;;;;12.06;50.36;101523.69;6140967;28;20506;-53
2021/05/03 14:26:13;;;;;;;14.73;13.40;;;;;;;11.77;50.70;101515.06;6139474;28;20252;-49
2021/05/03 14:29:38;;;;;;;12.27;11.27;;;;;;;11.32;51.55;101514.31;6142977;28;20231;-51
2021/05/03 14:32:59;;;;;;;12.37;11.27;;;;;;;11.54;51.22;101502.09;6141899;28;20231;-55
2021/05/03 14:36:20;;;;;;;11.10;10.03;;;;;;;12.16;49.11;101509.75;6140875;28;20234;-56
2021/05/03 14:39:41;;;;;;;11.10;10.00;;;;;;;11.56;50.58;101510.78;6140265;28;20235;-53
2021/05/03 14:43:04;;;;;;;11.53;10.53;;;;;;;10.63;53.13;101503.84;6143627;28;20251;-56
2021/05/03 14:46:33;;;;;;;11.10;10.10;;;;;;;11.58;50.75;101498.59;6136904;28;20493;-54
2021/05/03 14:49:59;;;;;;;10.37;9.43;;;;;;;12.38;48.59;101477.41;6139466;28;20238;-55
2021/05/03 14:53:32;;;;;;;9.60;8.70;;;;;;;12.57;47.36;101482.53;6141410;28;20849;-54
2021/05/03 14:56:55;;;;;;;10.50;9.50;;;;;;;11.82;49.13;101482.03;6143555;28;20238;-56
2021/05/03 15:00:16;;;;;;;11.07;9.97;;;;;;;11.43;50.29;101459.50;6140811;28;20231;-55
2021/05/03 15:03:36;;;;;;;11.10;10.10;;;;;;;11.73;49.33;101470.72;6136791;28;20239;-54
2021/05/03 15:07:00;;;;;;;10.60;9.60;;;;;;;11.93;48.36;101463.72;6133219;28;20235;-52
2021/05/03 15:10:22;;;;;;;10.37;9.47;;;;;;;11.87;48.52;101463.72;6143807;28;20517;-54
2021/05/03 15:13:46;;;;;;;10.20;9.30;;;;;;;11.45;50.17;101457.75;6135069;28;20226;-56
2021/05/03 15:24:20;;;;;;;10.83;10.00;;;;;;;12.18;47.12;101432.28;6129311;28;20227;-54
2021/05/03 15:27:45;;;;;;;9.47;8.70;;;;;;;12.62;46.60;101441.56;6137215;28;20251;-57
2021/05/03 15:31:11;;;;;;;10.80;9.67;;;;;;;12.40;46.82;101439.06;6139676;28;20314;-53
2021/05/03 15:34:32;;;;;;;10.93;9.83;;;;;;;12.25;47.50;101444.41;6139223;28;20251;-56
2021/05/03 15:37:53;;;;;;;10.87;9.93;;;;;;;11.37;49.30;101436.06;6139044;28;20243;-53
2021/05/03 15:41:15;;;;;;;10.47;9.47;;;;;;;11.42;50.00;101442.13;6132500;28;20337;-55
2021/05/03 15:44:38;;;;;;;9.67;8.77;;;;;;;11.15;50.16;101430.03;6137252;28;20243;-54
2021/05/03 15:47:58;;;;;;;10.43;9.53;;;;;;;11.15;50.17;101432.63;6141139;28;20792;-54
2021/05/03 15:51:19;;;;;;;10.23;9.33;;;;;;;11.22;50.44;101427.41;6129827;28;20246;-56
2021/05/03 15:54:41;;;;;;;10.73;9.80;;;;;;;10.87;51.30;101430.03;6132501;28;20235;-53
2021/05/03 15:58:01;;;;;;;10.17;9.37;;;;;;;10.93;50.94;101434.38;6123732;28;20235;-54
2021/05/03 16:01:22;;;;;;;9.50;8.80;;;;;;;10.78;51.83;101436.13;6133876;28;20227;-56
2021/05/03 16:04:43;;;;;;;9.87;9.07;;;;;;;11.23;50.90;101429.13;6141140;28;20243;-54
2021/05/03 16:08:05;;;;;;;9.03;8.23;;;;;;;11.29;51.04;101427.38;6141106;28;20227;-56
2021/05/03 16:11:26;;;;;;;8.80;8.00;;;;;;;11.09;51.72;101436.13;6133113;28;20717;-54
2021/05/03 16:14:47;;;;;;;7.43;6.77;;;;;;;10.44;52.74;101443.91;6148415;28;20247;-55